• Join FlightAware (Why Join?)
  • Login
  • US Flag 
11:37PM EDT


 

Airport Tracker/Info


-or-


 

Live Flight TrackerFlight Track Log ✈ XSR335 ✈ 29-May-2014 ✈ KSAV - KSTL

Flight Track Log - Related Links

Times and Time Zones

All times are in EDT time to prevent confusion due to time zone crossing. See the XSR335 flight status page for this flight to view local times or setup timezone preferences in your user account.

Time Position Orientation Groundspeed Altitude Reporting Facility
EDT Latitude Longitude Course Direction KTS MPH feet Rate Location/Type
03:45PM 32.0986 -81.1881 316° Northwest 188 216 2,100  Level Jacksonville Center
03:46PM 32.1419 -81.1456 40° Northeast 226 260 5,600 3,300 Climbing Jacksonville Center
03:47PM 32.1925 -81.1814 329° Northwest 190 219 8,700 2,580 Climbing Jacksonville Center
03:51PM 32.4731 -81.5977 316° Northwest  Level FlightAware Approximate
03:53PM 32.5334 -81.5869 315° West 334 384 23,200  Level FlightAware ADS-B (KLHW)
03:54PM 32.6097 -81.6817 315° West 321 369 25,200 1,800 Climbing Jacksonville Center
03:56PM 32.7200 -81.8142 315° West 319 367 28,400 1,740 Climbing Atlanta Center
03:57PM 32.7883 -81.8992 314° West 331 381 29,800 1,260 Climbing Atlanta Center
03:58PM 32.8608 -81.9864 315° West 355 409 31,000 1,200 Climbing Atlanta Center
03:59PM 32.9517 -82.0511 329° Northwest 367 422 32,200 1,200 Climbing Atlanta Center
04:00PM 33.0528 -82.1081 335° Northwest 380 437 33,500 1,260 Climbing Atlanta Center
04:01PM 33.1517 -82.1656 334° Northwest 396 456 34,800 1,320 Climbing Atlanta Center
04:02PM 33.2467 -82.2306 330° Northwest 396 456 36,200 1,320 Climbing Atlanta Center
04:03PM 33.3128 -82.3311 308° West 385 443 37,500 1,260 Climbing Atlanta Center
04:04PM 33.3892 -82.4342 312° West 395 455 38,800 1,200 Climbing Atlanta Center
04:05PM 33.4531 -82.5350 307° West 390 449 39,900 600 Climbing Atlanta Center
04:06PM 33.5211 -82.6311 310° West 385 443 40,000  Climbing Atlanta Center
04:07PM 33.5911 -82.7344 309° West 391 450 40,000 1,020 Level Atlanta Center
04:09PM 33.9911 -83.3238 308° West 389 448 43,000 1,140 Climbing FlightAware ADS-B (KDZJ)
04:10PM 34.0401 -83.3969 308° West 396 456 43,000  Level FlightAware ADS-B (KDZJ)
04:11PM 34.1337 -83.5374 309° West 411 473 43,000  Level FlightAware ADS-B (KDZJ)
04:12PM 34.1809 -83.6083 308° West 402 463 43,000  Level FlightAware ADS-B (KDZJ)
04:12PM 34.2289 -83.6806 308° West 398 458 43,000  Level FlightAware ADS-B (KDZJ)
04:13PM 34.2751 -83.7503 308° West 396 456 43,000  Level FlightAware ADS-B (KDZJ)
04:14PM 34.3214 -83.8205 308° West 395 455 43,000  Level FlightAware ADS-B (KDZJ)
04:14PM 34.3661 -83.8883 308° West 394 453 43,000  Level FlightAware ADS-B (KDZJ)
04:15PM 34.4102 -83.9553 308° West 394 453 43,000  Level FlightAware ADS-B (KDZJ)
04:16PM 34.4589 -84.0293 308° West 393 452 43,000  Level FlightAware ADS-B (KDZJ)
04:16PM 34.5023 -84.0955 308° West 393 452 43,000  Level FlightAware ADS-B (KDZJ)
04:17PM 34.5505 -84.1692 307° West 394 453 43,000  Level FlightAware ADS-B (KDZJ)
04:18PM 34.5977 -84.2415 307° West 394 453 43,000  Level FlightAware ADS-B (KDZJ)
04:18PM 34.6438 -84.3123 307° West 394 453 43,000  Level FlightAware ADS-B (KDZJ)
04:19PM 34.6878 -84.3799 307° West 395 455 43,000  Level FlightAware ADS-B (KDZJ)
04:20PM 34.7344 -84.4517 307° West 395 455 43,000  Level FlightAware ADS-B (KDZJ)
04:20PM 34.7799 -84.5219 307° West 395 455 43,000  Level FlightAware ADS-B (KDZJ)
04:21PM 34.8261 -84.5934 307° West 396 456 43,000  Level FlightAware ADS-B (KDZJ)
04:22PM 34.8722 -84.6650 307° West 395 455 43,000  Level FlightAware ADS-B (KDZJ)
04:26PM 34.6094 -84.2595 308° West 400 460 43,000  Level FlightAware ADS-B (KMDQ)
04:31PM 35.2185 -85.2292 301° West 400 460 43,000  Level FlightAware ADS-B (KMDQ)
04:32PM 35.2738 -85.3414 301° West 402 463 43,000  Level FlightAware ADS-B (KMDQ)
04:32PM 35.3067 -85.4083 301° West 403 464 43,000  Level FlightAware ADS-B (KMDQ)
04:33PM 35.3448 -85.4977 290° West 402 463 43,000  Level FlightAware ADS-B (KMDQ)
04:34PM 35.3727 -85.5899 290° West 401 461 43,000  Level FlightAware ADS-B (KMDQ)
04:35PM 35.4003 -85.6798 291° West 402 463 43,000  Level FlightAware ADS-B (KMDQ)
04:35PM 35.4265 -85.7644 291° West 401 461 43,000  Level FlightAware ADS-B (KMDQ)
04:36PM 35.4610 -85.8446 302° West 403 464 43,000  Level FlightAware ADS-B (KMDQ)
04:37PM 35.5006 -85.9243 301° West 405 466 43,000  Level FlightAware ADS-B (KMDQ)
04:37PM 35.5393 -86.0022 301° West 405 466 43,000  Level FlightAware ADS-B (KMDQ)
04:38PM 35.5762 -86.0763 301° West 406 467 43,000  Level FlightAware ADS-B (KMDQ)
04:39PM 35.6174 -86.1593 301° West 407 468 43,000  Level FlightAware ADS-B (KMDQ)
04:39PM 35.6591 -86.2434 301° West 408 470 43,000  Level FlightAware ADS-B (KMDQ)
04:40PM 35.6957 -86.3175 301° West 409 471 43,000  Level FlightAware ADS-B (KMDQ)
04:41PM 35.7350 -86.3973 301° West 410 472 43,000  Level FlightAware ADS-B (KMDQ)
04:44PM 35.9274 -86.7901 301° West 411 473 43,000  Level FlightAware ADS-B (KMDQ)
04:45PM 35.9720 -86.8817 301° West 411 473 43,000  Level FlightAware ADS-B (KMDQ)
04:45PM 36.0084 -86.9567 301° West 412 474 43,000  Level FlightAware ADS-B (KMDQ)
04:46PM 36.0473 -87.0371 301° West 412 474 43,000  Level FlightAware ADS-B (KMDQ)
04:47PM 36.0874 -87.1202 301° West 412 474 43,000  Level FlightAware ADS-B (KMDQ)
04:47PM 36.1236 -87.1964 301° West 409 471 43,000  Level Kansas City Center
04:48PM 36.1697 -87.2922 301° West 411 473 43,000  Level Memphis Center
04:49PM 36.2294 -87.4169 301° West 412 474 43,000  Level Memphis Center
04:50PM 36.2889 -87.5422 301° West 412 474 43,000  Level Memphis Center
04:51PM 36.3494 -87.6689 301° West 417 480 43,000  Level Memphis Center
04:52PM 36.4089 -87.7939 301° West 417 480 43,000  Level Memphis Center
04:53PM 36.4689 -87.9206 301° West 418 481 43,000  Level Memphis Center
04:54PM 36.5283 -88.0478 300° West 419 482 43,000 -600 Level Memphis Center
04:55PM 36.5975 -88.1936 301° West 426 490 41,800 -1,380 Descending Memphis Center
04:56PM 36.6586 -88.3247 300° West 434 499 40,200 -1,560 Descending Memphis Center
04:57PM 36.7178 -88.4517 300° West 430 495 38,600 -1,560 Descending Memphis Center
04:58PM 36.7761 -88.5767 300° West 422 486 37,000 -1,320 Descending Memphis Center
04:59PM 36.8317 -88.7006 299° West 417 480 35,900 -1,140 Descending Memphis Center
05:00PM 36.9064 -88.8611 300° West 442 509 34,700 -1,260 Descending Memphis Center
05:01PM 36.9700 -89.0006 300° West 459 528 33,400 -1,500 Descending Memphis Center
05:02PM 37.0597 -89.1150 315° West 465 535 31,600 -1,800 Descending Memphis Center
05:03PM 37.1658 -89.2069 325° Northwest 465 535 29,800 -1,680 Descending Memphis Center
05:05PM 37.2742 -89.3031 325° Northwest 474 545 28,100 -1,740 Descending Memphis Center
05:06PM 37.4011 -89.4156 325° Northwest 471 542 26,200 -1,680 Descending Memphis Center
05:07PM 37.4950 -89.5272 317° Northwest 469 540 24,700 -1,500 Descending Memphis Center
05:08PM 37.5836 -89.6453 313° West 467 537 23,200 -1,500 Descending Memphis Center
05:09PM 37.6847 -89.7353 325° Northwest 453 521 21,700 -1,500 Descending Memphis Center
05:10PM 37.7889 -89.8142 329° Northwest 442 509 20,200 -1,500 Descending Memphis Center
05:11PM 37.8908 -89.8900 330° Northwest 430 495 18,600 -1,680 Descending Memphis Center
05:12PM 38.0114 -89.9811 329° Northwest 427 491 16,800 -1,500 Descending Memphis Center
05:13PM 38.1353 -90.0744 329° Northwest 407 468 15,100 -780 Descending Kansas City Center
05:14PM 38.2356 -90.1292 337° Northwest 399 459 15,000 -720 Descending Kansas City Center
05:15PM 38.3372 -90.1875 336° Northwest 379 436 13,700 -1,380 Descending Kansas City Center
05:16PM 38.4189 -90.2317 337° Northwest 347 399 12,200 -1,500 Descending Kansas City Center
05:17PM 38.4989 -90.2769 336° Northwest 319 367 10,600 -1,680 Descending Kansas City Center
05:18PM 38.5889 -90.3278 336° Northwest 301 346 8,700 -1,920 Descending Kansas City Center
05:19PM 38.6614 -90.3692 336° Northwest 290 334 6,700 -1,800 Descending Kansas City Center
05:20PM 38.7019 -90.4583 300° West 279 321 5,000 -840 Descending Kansas City Center
05:21PM 38.7283 -90.5289 296° West 224 258 5,000  Level Kansas City Center
05:22PM 38.7675 -90.5653 324° Northwest 208 239 5,100 -420 Climbing Kansas City Center
05:23PM 38.8139 -90.5336 28° Northeast 190 219 4,200 -900 Descending Kansas City Center
05:25PM 38.8075 -90.4797 99° East 172 198 3,300 -1,080 Descending Kansas City Center
05:26PM 38.7836 -90.4303 122° Southeast 164 189 2,100 -1,080 Descending Kansas City Center
05:27PM 38.7650 -90.3922 122° Southeast 132 152 1,100 -780 Descending Kansas City Center
05:28PM 38.7458 -90.3522 122° Southeast 126 145 600 -540 Descending Kansas City Center